• Join FlightAware (Why Join?)
  • Login
  • US Flag 
03:56AM EDT


 

Airport Tracker/Info


-or-


 

Live Flight TrackerFlight Track Log ✈ N209EA ✈ 17-Aug-2013 ✈ KFTY - KEXX

Flight Track Log - Related Links

Times and Time Zones

All times are in EDT time to prevent confusion due to time zone crossing. See the N209EA flight status page for this flight to view local times or setup timezone preferences in your user account.

Time Position Orientation Groundspeed Altitude Reporting Facility
EDT Latitude Longitude Course Direction KTS MPH feet Rate Location/Type
02:06PM 33.8333 -84.4000 73° East 228 262 5,000  Level Atlanta TRACON
02:07PM 33.8333 -84.3167 90° East 258 297 5,000  Level Atlanta TRACON
02:08PM 33.8500 -84.2333 76° East 260 299 5,000 900 Level Atlanta TRACON
02:09PM 33.8667 -84.1500 76° East 238 274 6,800 1,860 Climbing Atlanta TRACON
02:10PM 33.8672 -84.0889 89° East 231 266 8,500 1,740 Climbing Atlanta Center
02:11PM 33.8736 -84.0164 84° East 231 266 10,000 1,260 Climbing Atlanta Center
02:12PM 33.8819 -83.9336 83° East 240 276 11,100 1,200 Climbing Atlanta Center
02:13PM 33.8858 -83.8486 87° East 245 282 12,400 1,260 Climbing Atlanta Center
02:14PM 33.9025 -83.7661 76° East 252 290 13,700 1,560 Climbing Atlanta Center
02:15PM 33.9461 -83.7008 51° Northeast 246 283 15,600 1,920 Climbing Atlanta Center
02:16PM 33.9836 -83.6406 53° Northeast 232 267 17,600 1,620 Climbing Atlanta Center
02:17PM 34.0189 -83.5828 54° Northeast 220 253 18,900 660 Climbing Atlanta Center
02:18PM 34.0583 -83.5222 52° Northeast 228 262 19,000  Climbing Atlanta Center
02:19PM 34.1081 -83.4417 53° Northeast 272 313 19,000  Level Atlanta Center
02:20PM 34.1597 -83.3558 54° Northeast 303 349 19,000 480 Level Atlanta Center
02:21PM 34.2114 -83.2700 54° Northeast 313 360 20,000 480 Climbing Atlanta Center
02:22PM 34.2631 -83.1842 54° Northeast 320 368 20,000 900 Level Atlanta Center
02:23PM 34.3144 -83.1058 52° Northeast 309 356 21,800 960 Climbing Atlanta Center
02:24PM 34.3619 -83.0247 55° Northeast 294 338 22,000 600 Climbing Atlanta Center
02:25PM 34.4194 -82.9308 53° Northeast 303 349 23,000 480 Climbing Atlanta Center
02:26PM 34.4731 -82.8444 53° Northeast 308 354 23,000  Level Atlanta Center
02:27PM 34.5306 -82.7528 53° Northeast 326 375 23,000  Level Atlanta Center
02:28PM 34.5900 -82.6611 52° Northeast 333 383 23,000  Level Atlanta Center
02:29PM 34.6433 -82.5769 52° Northeast 343 395 23,000  Level Atlanta Center
02:30PM 34.6986 -82.4825 55° Northeast 343 395 23,000  Level Atlanta Center
02:31PM 34.7578 -82.3853 53° Northeast 348 400 23,000  Level Atlanta Center
02:32PM 34.8169 -82.2906 53° Northeast 348 400 23,000  Level Atlanta Center
02:33PM 34.8719 -82.1931 55° Northeast 348 400 23,000  Level Atlanta Center
02:34PM 34.9369 -82.0878 53° Northeast 343 395 23,000 -60 Level Atlanta Center
02:35PM 34.9961 -81.9928 53° Northeast 350 403 22,900 -840 Descending Atlanta Center
02:36PM 35.0569 -81.8897 54° Northeast 355 409 21,400 -1,620 Descending Atlanta Center
02:37PM 35.1069 -81.7742 62° Northeast 371 427 19,700 -1,800 Descending Atlanta Center
02:38PM 35.1611 -81.6633 59° Northeast 377 434 17,900 -1,380 Descending Atlanta Center
02:39PM 35.2089 -81.5503 63° Northeast 377 434 17,000 -480 Descending Atlanta Center
02:40PM 35.2589 -81.4444 60° Northeast 366 421 17,000 -60 Level Atlanta Center
02:41PM 35.3047 -81.3461 60° Northeast 344 396 16,900 -720 Descending Atlanta Center
02:42PM 35.3506 -81.2428 61° Northeast 338 389 15,600 -960 Descending Atlanta Center
02:43PM 35.4003 -81.1367 60° Northeast 351 404 15,000 -1,140 Descending Atlanta Center
02:44PM 35.4478 -81.0356 60° Northeast 345 397 13,400 -1,680 Descending Atlanta Center
02:45PM 35.4736 -80.9811 60° Northeast 340 391 12,400 -2,460 Descending Atlanta Center
02:45PM 35.5153 -80.8928 60° Northeast 318 366 9,800 -2,820 Descending Atlanta Center
02:46PM 35.5347 -80.8436 64° Northeast 325 374 8,400 -2,760 Descending Atlanta Center
02:47PM 35.5725 -80.7656 59° Northeast 282 325 5,700 -2,640 Descending Atlanta Center
02:48PM 35.6058 -80.6900 61° Northeast 246 283 3,200 -1,380 Descending Atlanta Center
02:49PM 35.6333 -80.6303 60° Northeast 236 272 3,000 -180 Descending Atlanta Center
02:50PM 35.6567 -80.5731 63° Northeast 202 232 2,900  Descending Atlanta Center
02:51PM 35.6633 -80.5089 83° East 181 208 3,000  Climbing Atlanta Center
02:52PM 35.6783 -80.4519 72° East 181 208 3,000 -180 Level Atlanta Center
02:53PM 35.7086 -80.4122 47° Northeast 164 189 2,700 -540 Descending Atlanta Center
02:54PM 35.7325 -80.3781 49° Northeast 137 158 2,000 -480 Descending Atlanta Center
02:55PM 35.7583 -80.3383 51° Northeast 131 151 1,800 3,480 Descending Atlanta Center
02:56PM 35.7825 -80.3067 47° Northeast 131 151 9,000 7,200 Climbing Atlanta Center
02:58PM 35.7811 -80.3038 68° East  Level Estimated